createdAt,value
2022-10-24T00:01:26.978Z,101239.78
2022-10-24T00:03:54.881Z,101236.06
2022-10-24T00:06:22.937Z,101252.31
2022-10-24T00:08:51.273Z,101224.97
2022-10-24T00:11:23.874Z,101247.16
2022-10-24T00:13:53.095Z,101244.63
2022-10-24T00:16:21.423Z,101244.69
2022-10-24T00:18:49.799Z,101257.72
2022-10-24T00:21:17.986Z,101256.84
2022-10-24T00:23:46.034Z,101255.19
2022-10-24T00:26:14.472Z,101240.06
2022-10-24T00:28:44.520Z,101252.50
2022-10-24T00:31:16.096Z,101249.09
2022-10-24T00:33:44.843Z,101238.22
2022-10-24T00:36:14.502Z,101254.38
2022-10-24T00:38:42.625Z,101255.19
2022-10-24T00:41:15.304Z,101262.19
2022-10-24T00:43:44.660Z,101237.25
2022-10-24T00:46:13.553Z,101266.59
2022-10-24T00:48:44.950Z,101263.03
2022-10-24T00:51:21.578Z,101233.53
2022-10-24T00:53:53.151Z,101264.81
2022-10-24T00:56:24.125Z,101257.94
2022-10-24T00:58:55.006Z,101274.50
2022-10-24T01:01:23.076Z,101262.34
2022-10-24T01:03:51.157Z,101264.97
2022-10-24T01:06:33.354Z,101261.44
2022-10-24T01:09:19.527Z,101251.84
2022-10-24T01:12:02.748Z,101254.38
2022-10-24T01:14:45.348Z,101255.28
2022-10-24T01:17:18.645Z,101251.75
2022-10-24T01:20:17.565Z,101251.75
2022-10-24T01:22:55.880Z,101248.34
2022-10-24T01:25:38.350Z,101247.50
2022-10-24T01:28:10.815Z,101242.28
2022-10-24T01:30:44.831Z,101217.41
2022-10-24T01:33:19.912Z,101238.19
2022-10-24T01:35:54.784Z,101222.91
2022-10-24T01:38:28.626Z,101241.59
2022-10-24T01:41:00.517Z,101235.34
2022-10-24T01:43:30.951Z,101246.06
2022-10-24T01:46:04.178Z,101242.66
2022-10-24T01:48:36.620Z,101235.72
2022-10-24T01:51:06.386Z,101234.81
2022-10-24T01:53:36.840Z,101238.31
2022-10-24T01:56:05.214Z,101227.06
2022-10-24T01:58:33.096Z,101232.28
2022-10-24T02:01:07.610Z,101229.66
2022-10-24T02:03:38.147Z,101179.50
2022-10-24T02:06:12.025Z,101235.84
2022-10-24T02:08:44.330Z,101228.91
2022-10-24T02:11:12.821Z,101196.63
2022-10-24T02:13:46.369Z,101216.41
2022-10-24T02:16:19.082Z,101211.13
2022-10-24T02:18:48.484Z,101228.03
2022-10-24T02:21:26.085Z,101219.91
2022-10-24T02:23:57.081Z,101236.00
2022-10-24T02:26:44.234Z,101228.97
2022-10-24T02:29:15.541Z,101231.59
2022-10-24T02:31:50.155Z,101232.56
2022-10-24T02:34:20.430Z,101229.06
2022-10-24T02:36:51.313Z,101225.34
2022-10-24T02:39:20.707Z,101228.16
2022-10-24T02:41:50.426Z,101196.00
2022-10-24T02:44:20.681Z,101194.63
2022-10-24T02:46:53.996Z,101214.28
2022-10-24T02:49:22.214Z,101201.91
2022-10-24T02:51:52.263Z,101204.66
2022-10-24T02:54:20.349Z,101208.38
2022-10-24T02:56:53.435Z,101156.78
2022-10-24T02:59:21.489Z,101200.53
2022-10-24T03:01:50.837Z,101190.78
2022-10-24T03:04:19.262Z,101167.72
2022-10-24T03:06:47.515Z,101193.53
2022-10-24T03:09:15.392Z,101124.03
2022-10-24T03:11:43.654Z,101185.56
2022-10-24T03:14:11.631Z,101203.16
2022-10-24T03:16:39.480Z,101205.75
2022-10-24T03:19:08.818Z,101171.81
2022-10-24T03:21:36.876Z,101205.78
2022-10-24T03:24:05.339Z,101203.16
2022-10-24T03:26:33.406Z,101197.94
2022-10-24T03:29:01.482Z,101173.81
2022-10-24T03:31:30.832Z,101183.78
2022-10-24T03:33:59.104Z,101197.09
2022-10-24T03:36:28.529Z,101194.53
2022-10-24T03:38:56.356Z,101195.44
2022-10-24T03:41:24.604Z,101191.88
2022-10-24T03:43:52.680Z,101193.59
2022-10-24T03:46:20.561Z,101183.09
2022-10-24T03:48:48.562Z,101186.69
2022-10-24T03:51:16.662Z,101183.19
2022-10-24T03:53:46.226Z,101136.75
2022-10-24T03:56:14.141Z,101180.59
2022-10-24T03:58:42.087Z,101175.34
2022-10-24T04:01:17.147Z,101172.72
2022-10-24T04:03:45.455Z,101171.81
2022-10-24T04:06:13.813Z,101149.72
2022-10-24T04:08:41.787Z,101170.03
2022-10-24T04:11:11.179Z,101169.22
2022-10-24T04:13:39.037Z,101167.50
2022-10-24T04:16:08.260Z,101162.31
2022-10-24T04:18:36.409Z,101166.63
2022-10-24T04:21:05.028Z,101158.66
2022-10-24T04:23:35.959Z,101174.47
2022-10-24T04:26:04.262Z,101166.63
2022-10-24T04:28:33.492Z,101166.41
2022-10-24T04:31:01.652Z,101157.75
2022-10-24T04:33:29.868Z,101163.22
2022-10-24T04:35:57.755Z,101052.31
2022-10-24T04:38:27.826Z,101164.94
2022-10-24T04:40:58.440Z,101168.44
2022-10-24T04:43:27.174Z,101153.34
2022-10-24T04:45:56.547Z,101171.03
2022-10-24T04:48:24.564Z,101173.66
2022-10-24T04:50:52.768Z,101177.16
2022-10-24T04:53:20.767Z,101171.00
2022-10-24T04:55:48.788Z,101152.41
2022-10-24T04:58:16.781Z,101173.78
2022-10-24T05:00:46.737Z,101173.78
2022-10-24T05:03:16.068Z,101172.06
2022-10-24T05:05:44.825Z,101167.75
2022-10-24T05:08:12.814Z,101173.03
2022-10-24T05:10:40.819Z,101172.19
2022-10-24T05:13:08.989Z,101173.91
2022-10-24T05:15:37.169Z,101167.03
2022-10-24T05:18:05.738Z,101167.94
2022-10-24T05:20:35.159Z,101166.28
2022-10-24T05:23:03.076Z,101145.13
2022-10-24T05:25:31.269Z,101140.59
2022-10-24T05:27:59.280Z,101148.09
2022-10-24T05:30:27.208Z,101145.19
2022-10-24T05:32:55.239Z,101153.38
2022-10-24T05:35:23.326Z,101150.75
2022-10-24T05:37:52.591Z,101138.25
2022-10-24T05:40:20.694Z,101149.88
2022-10-24T05:42:49.983Z,101147.31
2022-10-24T05:45:17.828Z,101143.88
2022-10-24T05:47:46.084Z,101146.44
2022-10-24T05:50:14.265Z,101140.38
2022-10-24T05:52:46.206Z,101142.09
2022-10-24T05:55:18.236Z,101140.31
2022-10-24T05:57:47.094Z,101139.47
2022-10-24T06:00:17.030Z,101145.66
2022-10-24T06:05:15.413Z,101120.06
2022-10-24T06:07:44.346Z,101141.41
2022-10-24T06:10:13.698Z,101122.84
2022-10-24T06:12:43.108Z,101149.38
2022-10-24T06:15:13.678Z,101132.63
2022-10-24T06:17:41.721Z,101149.50
2022-10-24T06:20:10.634Z,101143.38
2022-10-24T06:22:38.629Z,101142.63
2022-10-24T06:25:07.387Z,101106.81
2022-10-24T06:27:35.288Z,101142.81
2022-10-24T06:30:05.456Z,101144.59
2022-10-24T06:32:33.861Z,101133.13
2022-10-24T06:35:02.096Z,101139.31
2022-10-24T06:37:30.301Z,101129.88
2022-10-24T06:39:58.229Z,101132.44
2022-10-24T06:42:26.462Z,101145.81
2022-10-24T06:44:54.377Z,101148.50
2022-10-24T06:47:23.965Z,101148.56
2022-10-24T06:49:51.949Z,101152.06
2022-10-24T06:52:19.818Z,101151.19
2022-10-24T06:54:47.743Z,101153.84
2022-10-24T06:57:15.709Z,101094.28
2022-10-24T06:59:43.570Z,101149.66
2022-10-24T07:02:13.775Z,101142.75
2022-10-24T07:04:43.598Z,101142.94
2022-10-24T07:07:16.245Z,101139.25
2022-10-24T07:09:44.454Z,101147.50
2022-10-24T07:12:12.567Z,101138.84
2022-10-24T07:14:40.569Z,101144.25
2022-10-24T07:17:08.813Z,101134.69
2022-10-24T07:19:37.535Z,101142.66
2022-10-24T07:22:07.309Z,101141.06
2022-10-24T07:24:35.547Z,101146.50
2022-10-24T07:27:03.480Z,101141.38
2022-10-24T07:29:31.443Z,101135.19
2022-10-24T07:31:59.697Z,101148.66
2022-10-24T07:34:27.802Z,101139.84
2022-10-24T07:36:55.784Z,101147.16
2022-10-24T07:39:25.149Z,101151.56
2022-10-24T07:41:52.945Z,101150.81
2022-10-24T07:44:20.951Z,101148.31
2022-10-24T07:46:48.913Z,101120.78
2022-10-24T07:49:16.762Z,101148.56
2022-10-24T07:51:44.737Z,101143.44
2022-10-24T07:54:12.770Z,101155.75
2022-10-24T07:56:41.974Z,101147.13
2022-10-24T07:59:29.975Z,101138.34
2022-10-24T08:01:58.406Z,101108.13
2022-10-24T08:04:26.373Z,101143.81
2022-10-24T08:06:54.183Z,101136.06
2022-10-24T08:09:22.330Z,101118.31
2022-10-24T08:11:51.726Z,101136.31
2022-10-24T08:14:19.701Z,101138.44
2022-10-24T08:16:47.773Z,101143.16
2022-10-24T08:19:16.345Z,101139.03
2022-10-24T08:21:44.249Z,101134.56
2022-10-24T08:24:13.261Z,101138.19
2022-10-24T08:26:41.507Z,101131.00
2022-10-24T08:29:12.105Z,101146.22
2022-10-24T08:31:40.274Z,101133.91
2022-10-24T08:34:08.443Z,101135.16
2022-10-24T08:36:37.239Z,101146.56
2022-10-24T08:39:05.978Z,101131.59
2022-10-24T08:41:39.021Z,101144.97
2022-10-24T08:44:21.171Z,101138.59
2022-10-24T08:46:54.208Z,101140.56
2022-10-24T08:49:29.588Z,101137.03
2022-10-24T08:52:01.468Z,101146.63
2022-10-24T08:54:36.865Z,101143.06
2022-10-24T08:57:06.046Z,101146.63
2022-10-24T08:59:37.768Z,101133.41
2022-10-24T09:02:14.305Z,101141.44
2022-10-24T09:04:50.538Z,101141.44
2022-10-24T09:07:21.184Z,101137.94
2022-10-24T09:09:51.627Z,101126.28
2022-10-24T09:12:21.874Z,101141.38
2022-10-24T09:14:55.983Z,101138.47
2022-10-24T09:17:25.824Z,101141.34
2022-10-24T09:19:57.334Z,101145.63
2022-10-24T09:22:28.489Z,101118.81
2022-10-24T09:25:00.300Z,101132.25
2022-10-24T09:27:31.308Z,101129.56
2022-10-24T09:30:02.021Z,101138.47
2022-10-24T09:32:32.145Z,101137.53
2022-10-24T09:35:01.830Z,101133.13
2022-10-24T09:37:35.087Z,101122.50
2022-10-24T09:40:14.596Z,101113.81
2022-10-24T09:42:50.593Z,101133.41
2022-10-24T09:45:30.586Z,101130.03
2022-10-24T09:48:01.375Z,101091.72
2022-10-24T09:50:29.758Z,101128.41
2022-10-24T09:52:59.867Z,101128.47
2022-10-24T09:55:31.259Z,101119.72
2022-10-24T09:58:05.343Z,101108.19
2022-10-24T10:00:38.097Z,101121.50
2022-10-24T10:03:07.729Z,101104.13
2022-10-24T10:05:47.904Z,101107.91
2022-10-24T10:08:22.098Z,101094.59
2022-10-24T10:11:02.515Z,101089.38
2022-10-24T10:13:31.822Z,101091.16
2022-10-24T10:16:04.253Z,101101.16
2022-10-24T10:18:43.177Z,101103.00
2022-10-24T10:21:13.928Z,101100.50
2022-10-24T10:23:43.967Z,101101.44
2022-10-24T10:26:21.373Z,101099.72
2022-10-24T10:28:57.480Z,101085.63
2022-10-24T10:31:34.883Z,101084.88
2022-10-24T10:34:15.056Z,101073.53
2022-10-24T10:36:57.042Z,101068.50
2022-10-24T10:39:46.816Z,101081.03
2022-10-24T10:42:20.427Z,101084.59
2022-10-24T10:45:00.457Z,101088.94
2022-10-24T10:47:38.404Z,101084.63
2022-10-24T10:50:26.011Z,101012.50
2022-10-24T10:52:57.109Z,101083.75
2022-10-24T10:55:32.671Z,101082.69
2022-10-24T10:58:10.990Z,101071.28
2022-10-24T11:00:48.204Z,101081.03
2022-10-24T11:03:31.567Z,101070.50
2022-10-24T11:06:11.121Z,101076.56
2022-10-24T11:08:56.194Z,101066.81
2022-10-24T11:11:28.848Z,101074.72
2022-10-24T11:14:03.935Z,101074.84
2022-10-24T11:16:32.692Z,101071.16
2022-10-24T11:19:06.676Z,101073.75
2022-10-24T11:21:36.560Z,101071.91
2022-10-24T11:24:13.552Z,101069.22
2022-10-24T11:26:44.549Z,101056.59
2022-10-24T11:29:19.477Z,101067.41
2022-10-24T11:31:50.829Z,101075.19
2022-10-24T11:34:25.278Z,101033.66
2022-10-24T11:36:59.425Z,101053.03
2022-10-24T11:39:31.405Z,101050.78
2022-10-24T11:42:06.421Z,101058.75
2022-10-24T11:44:47.530Z,101052.72
2022-10-24T11:47:42.231Z,101055.44
2022-10-24T11:50:23.303Z,101033.34
2022-10-24T11:52:58.920Z,101048.66
2022-10-24T11:55:31.602Z,101046.19
2022-10-24T11:58:01.324Z,101038.38
2022-10-24T12:00:33.192Z,101038.69
2022-10-24T12:03:33.495Z,101027.56
2022-10-24T12:06:27.725Z,101023.50
2022-10-24T12:09:19.219Z,101025.47
2022-10-24T12:12:10.972Z,101012.25
2022-10-24T12:14:53.227Z,101010.72
2022-10-24T12:17:39.439Z,101007.13
2022-10-24T12:20:12.986Z,100971.59
2022-10-24T12:22:45.000Z,100999.31
2022-10-24T12:25:24.131Z,101007.13
2022-10-24T12:27:56.438Z,100992.88
2022-10-24T12:30:26.433Z,100987.41
2022-10-24T12:32:58.231Z,100999.00
2022-10-24T12:35:53.005Z,100986.72
2022-10-24T12:39:09.115Z,100982.19
2022-10-24T12:41:43.601Z,100966.94
2022-10-24T12:44:39.229Z,100977.44
2022-10-24T12:47:32.904Z,100985.94
2022-10-24T12:50:39.415Z,100970.66
2022-10-24T12:53:19.304Z,100973.31
2022-10-24T12:56:25.378Z,100961.03
2022-10-24T12:59:17.432Z,100965.66
2022-10-24T13:01:46.970Z,100914.97
2022-10-24T13:04:51.582Z,100970.06
2022-10-24T13:07:50.700Z,100943.56
2022-10-24T13:10:31.404Z,100960.47
2022-10-24T13:13:21.614Z,100960.38
2022-10-24T13:15:58.763Z,100963.00
2022-10-24T13:18:42.094Z,100952.47
2022-10-24T13:21:18.478Z,100957.66
2022-10-24T13:23:48.905Z,100942.63
2022-10-24T13:26:40.518Z,100930.22
2022-10-24T13:29:15.969Z,100934.72
2022-10-24T13:31:48.548Z,100878.34
2022-10-24T13:34:23.637Z,100932.69
2022-10-24T13:36:59.736Z,100945.94
2022-10-24T13:39:33.100Z,100929.34
2022-10-24T13:42:07.819Z,100931.97
2022-10-24T13:44:46.323Z,100913.38
2022-10-24T13:47:21.140Z,100915.09
2022-10-24T13:49:55.676Z,100845.63
2022-10-24T13:52:30.880Z,100921.94
2022-10-24T13:55:03.819Z,100898.66
2022-10-24T13:57:36.035Z,100902.13
2022-10-24T14:00:08.646Z,100915.50
2022-10-24T14:02:42.766Z,100917.28
2022-10-24T14:05:21.479Z,100917.19
2022-10-24T14:07:50.762Z,100897.78
2022-10-24T14:10:19.920Z,100911.75
2022-10-24T14:12:52.079Z,100892.94
2022-10-24T14:15:22.496Z,100914.91
2022-10-24T14:18:03.275Z,100905.19
2022-10-24T14:20:33.995Z,100908.53
2022-10-24T14:23:02.117Z,100906.66
2022-10-24T14:25:35.393Z,100898.59
2022-10-24T14:28:11.212Z,100908.19
2022-10-24T14:30:39.480Z,100913.31
2022-10-24T14:33:21.444Z,100900.22
2022-10-24T14:35:52.451Z,100896.72
2022-10-24T14:38:24.304Z,100898.50
2022-10-24T14:41:06.390Z,100892.38
2022-10-24T14:43:37.475Z,100891.47
2022-10-24T14:46:25.923Z,100881.00
2022-10-24T14:48:55.844Z,100842.78
2022-10-24T14:51:29.205Z,100824.19
2022-10-24T14:53:58.289Z,100874.94
2022-10-24T14:56:29.162Z,100869.69
2022-10-24T14:58:59.604Z,100819.06
2022-10-24T15:01:28.126Z,100827.22
2022-10-24T15:04:00.015Z,100862.75
2022-10-24T15:06:29.254Z,100867.94
2022-10-24T15:09:06.498Z,100863.53
2022-10-24T15:11:39.649Z,100863.44
2022-10-24T15:14:34.910Z,100856.38
2022-10-24T15:17:07.339Z,100858.09
2022-10-24T15:19:39.690Z,100841.16
2022-10-24T15:22:07.718Z,100850.03
2022-10-24T15:24:35.797Z,100840.22
2022-10-24T15:27:11.522Z,100847.28
2022-10-24T15:29:41.565Z,100858.69
2022-10-24T15:32:12.413Z,100862.13
2022-10-24T15:34:41.677Z,100854.19
2022-10-24T15:37:18.839Z,100860.25
2022-10-24T15:39:46.871Z,100844.41
2022-10-24T15:42:16.498Z,100807.25
2022-10-24T15:44:46.892Z,100851.66
2022-10-24T15:47:14.738Z,100854.34
2022-10-24T15:49:44.074Z,100846.53
2022-10-24T15:52:16.974Z,100841.31
2022-10-24T15:54:45.044Z,100827.03
2022-10-24T15:57:14.261Z,100831.81
2022-10-24T15:59:42.382Z,100831.00
2022-10-24T16:02:17.616Z,100832.81
2022-10-24T16:04:47.196Z,100822.09
2022-10-24T16:07:15.095Z,100832.03
2022-10-24T16:09:43.140Z,100831.19
2022-10-24T16:12:13.737Z,100797.63
2022-10-24T16:14:41.593Z,100819.03
2022-10-24T16:17:09.515Z,100819.94
2022-10-24T16:19:37.594Z,100815.59
2022-10-24T16:22:08.597Z,100808.69
2022-10-24T16:24:36.551Z,100808.63
2022-10-24T16:27:04.515Z,100810.50
2022-10-24T16:29:32.417Z,100811.38
2022-10-24T16:32:00.472Z,100776.84
2022-10-24T16:34:28.465Z,100799.97
2022-10-24T16:36:56.561Z,100789.38
2022-10-24T16:39:26.005Z,100796.53
2022-10-24T16:41:58.674Z,100799.09
2022-10-24T16:44:27.425Z,100802.56
2022-10-24T16:46:55.302Z,100799.88
2022-10-24T16:49:23.708Z,100796.38
2022-10-24T16:51:51.786Z,100752.84
2022-10-24T16:54:21.845Z,100784.72
2022-10-24T16:56:53.803Z,100783.16
2022-10-24T16:59:22.181Z,100794.47
2022-10-24T17:01:50.350Z,100802.31
2022-10-24T17:04:18.538Z,100784.81
2022-10-24T17:06:46.520Z,100794.34
2022-10-24T17:09:14.484Z,100655.00
2022-10-24T17:11:46.430Z,100786.47
2022-10-24T17:14:16.170Z,100782.91
2022-10-24T17:16:45.265Z,100780.97
2022-10-24T17:19:17.437Z,100754.53
2022-10-24T17:21:48.179Z,100769.72
2022-10-24T17:24:17.770Z,100765.03
2022-10-24T17:26:46.013Z,100782.81
2022-10-24T17:29:23.808Z,100772.28
2022-10-24T17:31:51.947Z,100756.19
2022-10-24T17:34:20.277Z,100773.13
2022-10-24T17:36:53.686Z,100731.28
2022-10-24T17:39:26.207Z,100769.47
2022-10-24T17:41:55.169Z,100773.19
2022-10-24T17:44:25.010Z,100777.53
2022-10-24T17:46:56.020Z,100774.06
2022-10-24T17:49:26.808Z,100766.03
2022-10-24T17:51:54.984Z,100719.09
2022-10-24T17:54:22.864Z,100754.81
2022-10-24T17:56:51.486Z,100737.94
2022-10-24T17:59:22.015Z,100753.94
2022-10-24T18:01:51.472Z,100752.16
2022-10-24T18:04:19.677Z,100756.50
2022-10-24T18:06:47.590Z,100750.38
2022-10-24T18:09:15.478Z,100699.66
2022-10-24T18:11:43.592Z,100745.09
2022-10-24T18:14:11.477Z,100736.34
2022-10-24T18:16:40.665Z,100738.09
2022-10-24T18:19:10.963Z,100683.06
2022-10-24T18:21:38.844Z,100732.00
2022-10-24T18:24:08.205Z,100723.13
2022-10-24T18:26:36.307Z,100730.34
2022-10-24T18:29:04.552Z,100726.81
2022-10-24T18:31:34.142Z,100715.44
2022-10-24T18:34:04.813Z,100712.97
2022-10-24T18:36:37.559Z,100674.88
2022-10-24T18:39:06.856Z,100714.78
2022-10-24T18:41:45.272Z,100696.38
2022-10-24T18:44:24.883Z,100668.94
2022-10-24T18:46:54.338Z,100703.53
2022-10-24T18:49:22.857Z,100700.91
2022-10-24T18:51:58.657Z,100702.69
2022-10-24T18:54:26.863Z,100695.78
2022-10-24T18:56:54.842Z,100692.31
2022-10-24T18:59:22.993Z,100679.94
2022-10-24T19:02:03.002Z,100693.19
2022-10-24T19:04:33.004Z,100686.19
2022-10-24T19:07:03.979Z,100681.84
2022-10-24T19:09:32.214Z,100682.69
2022-10-24T19:12:00.549Z,100680.91
2022-10-24T19:14:29.058Z,100673.94
2022-10-24T19:16:58.259Z,100659.72
2022-10-24T19:19:29.272Z,100678.31
2022-10-24T19:21:57.265Z,100658.22
2022-10-24T19:24:26.632Z,100654.69
2022-10-24T19:26:54.688Z,100652.84
2022-10-24T19:29:22.584Z,100659.09
2022-10-24T19:31:50.490Z,100652.13
2022-10-24T19:34:18.430Z,100647.78
2022-10-24T19:36:46.457Z,100615.75
2022-10-24T19:39:14.329Z,100628.31
2022-10-24T19:41:44.010Z,100605.47
2022-10-24T19:44:11.891Z,100600.25
2022-10-24T19:46:39.825Z,100632.28
2022-10-24T19:49:08.296Z,100625.31
2022-10-24T19:51:36.100Z,100629.66
2022-10-24T19:54:04.010Z,100603.25
2022-10-24T19:56:33.380Z,100608.59
2022-10-24T19:59:02.754Z,100621.91
2022-10-24T20:01:31.378Z,100618.44
2022-10-24T20:04:01.981Z,100613.19
2022-10-24T20:06:29.908Z,100591.06
2022-10-24T20:08:57.818Z,100600.16
2022-10-24T20:11:25.959Z,100602.78
2022-10-24T20:13:53.784Z,100601.91
2022-10-24T20:16:23.137Z,100590.38
2022-10-24T20:18:51.444Z,100604.56
2022-10-24T20:21:20.534Z,100595.03
2022-10-24T20:23:49.676Z,100594.97
2022-10-24T20:26:19.401Z,100584.56
2022-10-24T20:28:49.917Z,100592.41
2022-10-24T20:31:23.771Z,100585.47
2022-10-24T20:33:52.153Z,100567.84
2022-10-24T20:36:21.323Z,100581.09
2022-10-24T20:38:49.432Z,100542.22
2022-10-24T20:41:17.440Z,100575.78
2022-10-24T20:43:45.363Z,100581.09
2022-10-24T20:46:13.698Z,100555.72
2022-10-24T20:48:42.913Z,100490.16
2022-10-24T20:51:12.710Z,100469.66
2022-10-24T20:53:41.879Z,100560.25
2022-10-24T20:56:12.261Z,100541.75
2022-10-24T20:58:41.766Z,100463.84
2022-10-24T21:01:12.229Z,100547.97
2022-10-24T21:03:42.178Z,100478.09
2022-10-24T21:06:17.256Z,100514.31
2022-10-24T21:08:45.192Z,100543.75
2022-10-24T21:11:15.551Z,100540.28
2022-10-24T21:13:43.724Z,100445.47
2022-10-24T21:16:11.877Z,100519.88
2022-10-24T21:18:39.949Z,100528.06
2022-10-24T21:21:11.293Z,100538.59
2022-10-24T21:23:39.755Z,100523.59
2022-10-24T21:26:09.222Z,100537.78
2022-10-24T21:28:38.504Z,100470.59
2022-10-24T21:31:07.690Z,100525.63
2022-10-24T21:33:35.821Z,100519.50
2022-10-24T21:36:08.234Z,100477.09
2022-10-24T21:38:37.623Z,100499.31
2022-10-24T21:41:07.688Z,100506.53
2022-10-24T21:43:36.701Z,100508.31
2022-10-24T21:46:06.905Z,100494.38
2022-10-24T21:48:35.349Z,100444.84
2022-10-24T21:51:05.677Z,100480.53
2022-10-24T21:53:38.801Z,100484.06
2022-10-24T21:56:09.148Z,100483.22
2022-10-24T21:58:37.392Z,100488.50
2022-10-24T22:01:11.475Z,100479.78
2022-10-24T22:03:39.829Z,100482.44
2022-10-24T22:06:08.234Z,100448.03
2022-10-24T22:08:37.686Z,100477.28
2022-10-24T22:11:07.457Z,100421.63
2022-10-24T22:13:35.911Z,100466.00
2022-10-24T22:16:04.462Z,100469.47
2022-10-24T22:18:33.814Z,100461.72
2022-10-24T22:21:02.829Z,100465.28
2022-10-24T22:23:31.733Z,100445.00
2022-10-24T22:26:02.213Z,100395.41
2022-10-24T22:28:30.234Z,100349.59
2022-10-24T22:30:58.813Z,100432.91
2022-10-24T22:33:33.582Z,100454.09
2022-10-24T22:36:08.896Z,100417.88
2022-10-24T22:38:37.344Z,100313.19
2022-10-24T22:41:10.244Z,100428.84
2022-10-24T22:43:38.814Z,100449.09
2022-10-24T22:46:25.017Z,100435.19
2022-10-24T22:48:59.688Z,100427.34
2022-10-24T22:51:28.101Z,100430.91
2022-10-24T22:53:59.521Z,100376.22
2022-10-24T22:56:33.496Z,100423.09
2022-10-24T22:59:02.288Z,100429.13
2022-10-24T23:01:41.458Z,100414.47
2022-10-24T23:04:21.596Z,100415.38
2022-10-24T23:06:55.006Z,100407.56
2022-10-24T23:09:22.986Z,100385.50
2022-10-24T23:11:53.215Z,100402.41
2022-10-24T23:14:21.781Z,100398.06
2022-10-24T23:16:53.532Z,100385.66
2022-10-24T23:19:23.728Z,100394.63
2022-10-24T23:21:56.439Z,100385.97
2022-10-24T23:24:24.961Z,100377.25
2022-10-24T23:27:16.438Z,100375.53
2022-10-24T23:29:46.401Z,100342.81
2022-10-24T23:32:20.593Z,100345.66
2022-10-24T23:34:49.011Z,100358.16
2022-10-24T23:37:24.801Z,100360.84
2022-10-24T23:39:53.526Z,100332.72
2022-10-24T23:42:23.610Z,100346.03
2022-10-24T23:44:51.994Z,100349.56
2022-10-24T23:47:37.394Z,100355.75
2022-10-24T23:50:12.301Z,100328.50
2022-10-24T23:52:55.046Z,100327.72
2022-10-24T23:55:23.375Z,100340.13
2022-10-24T23:57:52.703Z,100333.16
